Time;durP1;ratioP1;P1;durP2;ratioP2;P2;SDS_P1;SDS_P2;PMS_P1;PMS_P2;Temp;Humidity;BMP_temperature;BMP_pressure;BME280_temperature;BME280_humidity;BME280_pressure;Samples;Min_cycle;Max_cycle;Signal;HPM_P1;HPM_P2
2022/06/30 00:01:31;;;;;;;12.00;6.68;;;21.00;99.90;;;;;;5010800;28;20026;-70
2022/06/30 00:03:56;;;;;;;7.45;5.50;;;20.80;99.90;;;;;;5013142;28;20038;-70
2022/06/30 00:06:22;;;;;;;7.20;5.85;;;20.90;99.90;;;;;;5040887;23;20016;-71
2022/06/30 00:08:48;;;;;;;6.53;5.65;;;21.10;99.90;;;;;;5018606;28;20037;-71
2022/06/30 00:11:13;;;;;;;11.85;5.75;;;21.80;99.90;;;;;;5052302;28;20407;-71
2022/06/30 00:13:42;;;;;;;8.27;5.90;;;21.40;99.90;;;;;;5053040;28;20033;-71
2022/06/30 00:16:09;;;;;;;6.53;5.70;;;20.80;99.90;;;;;;5052798;28;20479;-71
2022/06/30 00:18:35;;;;;;;6.30;5.70;;;20.80;99.90;;;;;;5053013;28;20411;-71
2022/06/30 00:21:01;;;;;;;6.35;5.43;;;20.70;99.90;;;;;;5052519;28;20043;-71
2022/06/30 00:23:27;;;;;;;6.55;5.30;;;22.30;99.90;;;;;;5035393;28;20126;-71
2022/06/30 00:25:52;;;;;;;6.78;5.68;;;20.80;99.90;;;;;;5051508;28;20087;-71
2022/06/30 00:28:19;;;;;;;7.57;6.05;;;21.90;99.90;;;;;;5051451;28;20480;-72
2022/06/30 00:30:49;;;;;;;6.32;5.60;;;20.70;99.90;;;;;;5052040;28;20122;-71
2022/06/30 00:33:16;;;;;;;6.53;5.85;;;20.80;99.90;;;;;;5051235;28;20029;-72
2022/06/30 00:35:42;;;;;;;7.30;5.50;;;21.80;99.90;;;;;;5051650;28;20529;-72
2022/06/30 00:38:07;;;;;;;6.88;5.80;;;20.70;99.90;;;;;;5034586;28;20044;-71
2022/06/30 00:40:38;;;;;;;6.90;5.45;;;22.30;99.90;;;;;;5051852;28;20050;-71
2022/06/30 00:43:04;;;;;;;6.85;6.18;;;22.00;99.90;;;;;;5051275;28;20045;-71
2022/06/30 00:45:30;;;;;;;7.80;5.70;;;21.00;99.90;;;;;;5051437;28;20462;-71
2022/06/30 00:47:56;;;;;;;6.93;5.55;;;20.70;99.90;;;;;;5051316;28;20041;-71
2022/06/30 00:50:22;;;;;;;7.07;5.90;;;21.40;99.90;;;;;;5051838;28;20044;-71
2022/06/30 00:52:50;;;;;;;6.28;5.68;;;20.60;99.90;;;;;;5051114;28;20072;-71
2022/06/30 00:55:18;;;;;;;6.95;6.03;;;20.60;99.90;;;;;;5051618;28;20438;-71
2022/06/30 00:57:44;;;;;;;7.72;5.22;;;21.20;99.90;;;;;;5050972;28;20045;-71
2022/06/30 01:00:12;;;;;;;8.48;5.65;;;21.50;99.90;;;;;;5049596;28;20119;-71
2022/06/30 01:02:38;;;;;;;7.90;5.35;;;20.40;99.90;;;;;;5050848;28;20041;-71
2022/06/30 01:05:04;;;;;;;6.13;4.93;;;20.30;99.90;;;;;;5052331;28;20048;-71
2022/06/30 01:07:30;;;;;;;7.63;5.28;;;20.40;99.90;;;;;;5050614;28;20384;-71
2022/06/30 01:12:45;;;;;;;5.35;4.85;;;20.90;99.90;;;;;;5050650;28;20053;-71
2022/06/30 01:15:13;;;;;;;6.97;5.72;;;21.60;99.90;;;;;;5051989;28;20040;-72
2022/06/30 01:17:39;;;;;;;5.72;4.88;;;21.20;99.90;;;;;;5033967;28;20037;-73
2022/06/30 01:20:05;;;;;;;7.03;5.07;;;21.10;99.90;;;;;;5051219;28;20060;-71
2022/06/30 01:22:31;;;;;;;6.57;5.13;;;20.20;99.90;;;;;;5050979;28;20391;-71
2022/06/30 01:24:56;;;;;;;5.78;5.18;;;20.90;99.90;;;;;;5034307;28;20037;-72
2022/06/30 01:27:22;;;;;;;6.32;4.90;;;20.30;99.90;;;;;;5050418;28;20511;-72
2022/06/30 01:29:48;;;;;;;7.20;5.22;;;20.20;99.90;;;;;;5050009;28;20040;-71
2022/06/30 01:32:14;;;;;;;4.43;4.03;;;20.40;99.90;;;;;;5050648;28;20091;-72
2022/06/30 01:34:40;;;;;;;5.00;4.47;;;20.20;99.90;;;;;;5051763;28;20040;-72
2022/06/30 01:37:06;;;;;;;9.35;4.13;;;20.20;99.90;;;;;;5051590;28;20098;-72
2022/06/30 01:39:32;;;;;;;4.55;4.15;;;20.50;99.90;;;;;;5049962;28;20464;-72
2022/06/30 01:41:57;;;;;;;5.97;4.55;;;20.30;99.90;;;;;;5050248;28;20033;-72
2022/06/30 01:44:23;;;;;;;4.47;4.05;;;20.40;99.90;;;;;;5051831;28;20044;-72
2022/06/30 01:46:49;;;;;;;5.45;4.47;;;20.10;99.90;;;;;;5050177;28;20513;-71
2022/06/30 01:49:15;;;;;;;4.82;4.43;;;20.30;99.90;;;;;;5050869;28;20048;-72
2022/06/30 01:51:41;;;;;;;7.10;3.95;;;20.40;99.90;;;;;;5051595;28;20648;-71
2022/06/30 01:54:08;;;;;;;5.95;4.13;;;20.50;99.90;;;;;;5053909;28;20141;-72
2022/06/30 01:56:37;;;;;;;7.28;4.25;;;20.60;99.90;;;;;;5054164;28;20123;-71
2022/06/30 01:59:05;;;;;;;6.43;3.80;;;20.70;99.90;;;;;;5055259;28;20037;-72
2022/06/30 02:01:31;;;;;;;7.97;4.25;;;20.30;99.90;;;;;;5036250;28;20080;-71
2022/06/30 02:04:46;;;;;;;4.38;3.17;;;20.30;99.90;;;;;;5037551;28;20033;-71
2022/06/30 02:06:43;;;;;;;7.32;4.18;;;20.20;99.90;;;;;;5053740;28;20053;-71
2022/06/30 02:09:08;;;;;;;7.38;4.00;;;20.20;99.90;;;;;;5054844;28;20036;-71
2022/06/30 02:11:34;;;;;;;7.72;4.00;;;20.50;99.90;;;;;;5054110;28;20098;-72
2022/06/30 02:14:00;;;;;;;6.95;3.50;;;20.40;99.90;;;;;;5037660;28;20553;-71
2022/06/30 02:16:25;;;;;;;5.03;3.42;;;20.40;99.90;;;;;;5053910;28;20041;-71
2022/06/30 02:18:51;;;;;;;5.28;4.25;;;20.10;99.90;;;;;;5036882;28;20075;-73
2022/06/30 02:21:16;;;;;;;3.97;3.50;;;19.70;99.90;;;;;;5053735;28;20060;-72
2022/06/30 02:23:42;;;;;;;4.28;3.83;;;19.90;99.90;;;;;;5053810;28;20044;-73
2022/06/30 02:26:08;;;;;;;7.65;4.50;;;20.20;99.90;;;;;;5055177;28;20223;-71
2022/06/30 02:28:33;;;;;;;4.30;3.17;;;20.40;99.90;;;;;;5053692;28;20041;-72
2022/06/30 02:30:59;;;;;;;7.05;3.45;;;21.30;99.90;;;;;;5052852;28;20037;-72
2022/06/30 02:33:24;;;;;;;4.60;4.10;;;19.90;99.90;;;;;;5054805;28;20043;-71
2022/06/30 02:35:50;;;;;;;5.15;3.90;;;21.30;99.90;;;;;;5053526;28;20033;-71
2022/06/30 02:38:15;;;;;;;5.18;3.65;;;20.10;99.90;;;;;;5053290;28;20033;-71
2022/06/30 02:40:41;;;;;;;5.63;3.90;;;21.20;99.90;;;;;;5054080;28;20045;-71
2022/06/30 02:43:07;;;;;;;6.63;4.00;;;20.50;99.90;;;;;;5053709;28;20047;-72
2022/06/30 02:45:32;;;;;;;6.45;3.80;;;19.70;99.90;;;;;;5036725;28;20052;-71
2022/06/30 02:47:59;;;;;;;4.65;4.25;;;19.50;99.90;;;;;;5053364;28;20037;-71
2022/06/30 02:50:24;;;;;;;6.85;3.90;;;20.00;99.90;;;;;;5052501;28;20045;-72
2022/06/30 02:52:50;;;;;;;9.90;3.95;;;19.60;99.90;;;;;;5036565;28;20048;-72
2022/06/30 02:55:15;;;;;;;4.75;3.90;;;19.40;99.90;;;;;;5053461;28;20064;-71
2022/06/30 02:57:41;;;;;;;6.07;3.88;;;19.40;99.90;;;;;;5054376;28;20121;-71
2022/06/30 03:00:09;;;;;;;7.78;4.20;;;19.40;99.90;;;;;;5051385;28;20044;-70
2022/06/30 03:02:35;;;;;;;8.18;4.75;;;19.40;99.90;;;;;;5036239;28;20116;-71
2022/06/30 03:05:01;;;;;;;4.40;4.00;;;19.40;99.90;;;;;;5051699;28;20040;-71
2022/06/30 03:07:27;;;;;;;6.30;3.50;;;20.80;99.90;;;;;;5054118;28;20051;-71
2022/06/30 03:09:52;;;;;;;5.10;4.03;;;20.10;99.90;;;;;;5052226;28;20040;-71
2022/06/30 03:12:18;;;;;;;6.22;4.38;;;19.20;99.90;;;;;;5052925;28;20522;-72
2022/06/30 03:14:44;;;;;;;6.32;4.20;;;19.40;99.90;;;;;;5053925;28;20051;-72
2022/06/30 03:17:09;;;;;;;4.88;4.13;;;19.30;99.90;;;;;;5052865;28;20111;-71
2022/06/30 03:19:35;;;;;;;4.40;4.00;;;19.90;99.90;;;;;;5035596;28;20586;-71
2022/06/30 03:22:00;;;;;;;5.18;4.65;;;20.00;99.90;;;;;;5053991;28;20491;-71
2022/06/30 03:24:26;;;;;;;5.38;4.68;;;19.30;99.90;;;;;;5052851;28;20041;-71
2022/06/30 03:26:51;;;;;;;4.30;3.83;;;19.00;99.90;;;;;;5053779;28;20076;-71
2022/06/30 03:29:17;;;;;;;6.38;4.10;;;19.10;99.90;;;;;;5051753;28;20300;-71
2022/06/30 03:31:43;;;;;;;5.22;4.13;;;19.00;99.90;;;;;;5053918;28;20056;-72
2022/06/30 03:34:08;;;;;;;8.35;4.50;;;19.80;99.90;;;;;;5052437;28;20041;-71
2022/06/30 03:36:34;;;;;;;5.82;5.00;;;18.90;99.90;;;;;;5053632;28;20045;-71
2022/06/30 03:39:00;;;;;;;7.50;3.97;;;19.80;99.90;;;;;;5051799;28;20087;-70
2022/06/30 03:41:25;;;;;;;7.03;4.50;;;19.20;99.90;;;;;;5053387;28;20041;-71
2022/06/30 03:43:51;;;;;;;5.55;4.03;;;18.90;99.90;;;;;;5053568;28;20044;-72
2022/06/30 03:46:17;;;;;;;4.20;3.80;;;19.10;99.90;;;;;;5052359;28;20033;-71
2022/06/30 03:48:42;;;;;;;5.38;3.83;;;19.10;99.90;;;;;;5055586;28;20041;-71
2022/06/30 03:51:09;;;;;;;4.00;3.60;;;19.70;99.90;;;;;;5053679;28;20049;-71
2022/06/30 03:53:35;;;;;;;6.80;4.22;;;19.00;99.90;;;;;;5036857;28;20041;-72
2022/06/30 03:56:00;;;;;;;5.50;3.90;;;19.80;99.90;;;;;;5039641;28;20048;-72
2022/06/30 03:58:26;;;;;;;6.35;4.07;;;19.00;99.90;;;;;;5054738;28;20119;-71
2022/06/30 04:00:51;;;;;;;5.53;4.28;;;19.10;99.90;;;;;;5035733;28;20504;-71
2022/06/30 04:03:17;;;;;;;5.20;4.47;;;19.00;99.90;;;;;;5056015;28;20040;-72
2022/06/30 04:05:42;;;;;;;4.43;4.03;;;18.90;99.90;;;;;;5055336;28;20047;-71
2022/06/30 04:08:08;;;;;;;4.50;3.80;;;19.00;99.90;;;;;;5051846;28;20040;-71
2022/06/30 04:10:34;;;;;;;6.80;4.68;;;19.00;99.90;;;;;;5051245;28;20128;-71
2022/06/30 04:13:00;;;;;;;4.82;4.20;;;19.10;99.90;;;;;;5053383;28;20036;-71
2022/06/30 04:15:27;;;;;;;6.18;4.18;;;19.20;99.90;;;;;;5035970;28;20076;-71
2022/06/30 04:17:53;;;;;;;4.75;3.63;;;19.30;99.90;;;;;;5051546;28;20512;-72
2022/06/30 04:20:18;;;;;;;4.20;3.72;;;19.30;99.90;;;;;;5052200;28;20041;-72
2022/06/30 04:22:47;;;;;;;4.30;3.90;;;19.60;99.90;;;;;;5051559;28;20486;-71
2022/06/30 04:25:13;;;;;;;7.32;3.92;;;20.20;99.90;;;;;;5051488;28;20040;-71
2022/06/30 04:27:46;;;;;;;6.75;4.32;;;19.40;99.90;;;;;;5051301;28;20415;-72
2022/06/30 04:30:12;;;;;;;12.02;4.60;;;19.20;99.90;;;;;;5033968;28;20037;-71
2022/06/30 04:32:38;;;;;;;4.95;3.85;;;19.40;99.90;;;;;;5034756;28;20545;-72
2022/06/30 04:35:09;;;;;;;4.55;4.15;;;20.20;99.90;;;;;;5051467;28;20040;-71
2022/06/30 04:37:34;;;;;;;5.95;4.10;;;19.30;99.90;;;;;;5051059;28;20037;-71
2022/06/30 04:42:44;;;;;;;4.25;3.85;;;19.50;99.90;;;;;;5052681;28;20041;-71
2022/06/30 04:45:10;;;;;;;7.43;4.95;;;19.60;99.90;;;;;;5051346;28;20041;-71
2022/06/30 04:47:37;;;;;;;4.35;3.90;;;19.60;99.90;;;;;;5051088;28;20033;-71
2022/06/30 04:50:04;;;;;;;5.35;3.35;;;19.40;99.90;;;;;;5051538;28;20048;-71
2022/06/30 04:52:29;;;;;;;4.47;4.03;;;19.80;99.90;;;;;;5034209;28;20041;-71
2022/06/30 04:54:55;;;;;;;5.55;4.40;;;20.00;99.90;;;;;;5050876;28;20051;-71
2022/06/30 04:57:20;;;;;;;4.65;3.92;;;19.60;99.90;;;;;;5052055;28;20079;-73
2022/06/30 04:59:46;;;;;;;6.15;4.63;;;19.90;99.90;;;;;;5050104;28;20132;-71
2022/06/30 05:02:12;;;;;;;5.60;4.22;;;19.80;99.90;;;;;;5050342;28;20429;-71
2022/06/30 05:04:37;;;;;;;4.28;3.83;;;19.80;99.90;;;;;;5051968;28;20041;-72
2022/06/30 05:07:03;;;;;;;10.43;4.45;;;19.80;99.90;;;;;;5050525;28;20080;-73
2022/06/30 05:09:29;;;;;;;4.72;4.22;;;19.70;99.90;;;;;;5050206;28;20365;-71
2022/06/30 05:11:54;;;;;;;6.22;4.75;;;19.80;99.90;;;;;;5034036;28;20049;-72
2022/06/30 05:14:20;;;;;;;5.70;4.13;;;20.80;99.90;;;;;;5050903;28;20073;-72
2022/06/30 05:16:46;;;;;;;5.05;3.90;;;19.80;99.90;;;;;;5050610;28;20033;-73
2022/06/30 05:19:11;;;;;;;4.93;4.25;;;20.80;99.90;;;;;;5049889;28;20235;-71
2022/06/30 05:21:37;;;;;;;5.55;3.80;;;20.00;99.90;;;;;;5050724;28;20074;-71
2022/06/30 05:26:47;;;;;;;4.53;4.13;;;19.90;99.90;;;;;;5051285;28;20048;-71
2022/06/30 05:29:12;;;;;;;4.30;3.90;;;20.00;99.90;;;;;;5049286;28;20037;-71
2022/06/30 05:31:38;;;;;;;5.68;4.20;;;20.00;99.90;;;;;;5034112;28;20494;-71
2022/06/30 05:34:03;;;;;;;4.95;4.30;;;20.10;99.90;;;;;;5033811;28;20040;-72
2022/06/30 05:36:29;;;;;;;4.47;3.92;;;20.90;99.90;;;;;;5051632;28;20029;-72
2022/06/30 05:38:54;;;;;;;6.43;4.00;;;20.30;99.90;;;;;;5049925;28;20174;-71
2022/06/30 05:41:20;;;;;;;5.47;4.43;;;20.50;99.90;;;;;;5051349;28;20036;-71
2022/06/30 05:43:46;;;;;;;6.05;4.43;;;20.40;99.90;;;;;;5051623;28;20040;-71
2022/06/30 05:46:11;;;;;;;5.88;3.97;;;21.20;99.90;;;;;;5050371;28;20037;-72
2022/06/30 05:48:37;;;;;;;6.32;4.57;;;21.30;99.90;;;;;;5051624;28;20040;-71
2022/06/30 05:51:03;;;;;;;6.18;4.80;;;20.80;99.90;;;;;;5049501;28;20225;-71
2022/06/30 05:53:28;;;;;;;4.65;4.07;;;20.70;99.90;;;;;;5033629;28;20037;-72
2022/06/30 05:55:54;;;;;;;6.63;4.53;;;20.90;99.90;;;;;;5051418;28;20490;-72
2022/06/30 05:58:19;;;;;;;5.45;4.10;;;21.00;99.90;;;;;;5049974;28;20522;-71
2022/06/30 06:00:45;;;;;;;5.05;4.53;;;20.80;99.90;;;;;;5047935;28;20037;-71
2022/06/30 06:03:11;;;;;;;6.22;4.50;;;20.80;99.90;;;;;;5051554;28;20033;-72
2022/06/30 06:05:36;;;;;;;5.32;4.82;;;21.40;99.90;;;;;;5033531;28;20040;-73
2022/06/30 06:08:07;;;;;;;7.28;4.55;;;21.00;99.90;;;;;;5031842;23;20463;-70
2022/06/30 06:10:32;;;;;;;6.60;5.22;;;21.20;99.90;;;;;;4994710;28;20044;-69
2022/06/30 06:12:58;;;;;;;7.68;4.65;;;21.20;99.90;;;;;;5011458;28;20137;-70
2022/06/30 06:15:24;;;;;;;8.93;5.60;;;21.20;99.90;;;;;;5010114;28;20061;-71
2022/06/30 06:17:49;;;;;;;5.60;5.05;;;21.30;99.90;;;;;;5010025;28;20117;-71
2022/06/30 06:20:16;;;;;;;7.22;5.03;;;21.30;99.90;;;;;;5009451;28;20042;-71
2022/06/30 06:22:43;;;;;;;7.82;5.57;;;21.70;99.90;;;;;;4993705;28;20038;-71
2022/06/30 06:25:10;;;;;;;5.65;5.13;;;21.70;99.90;;;;;;5011340;28;20122;-68
2022/06/30 06:27:36;;;;;;;7.32;4.80;;;21.70;99.90;;;;;;5010092;28;20385;-69
2022/06/30 06:30:07;;;;;;;5.80;5.18;;;21.70;99.90;;;;;;5009425;28;20499;-69
2022/06/30 06:32:33;;;;;;;10.48;5.55;;;21.60;99.90;;;;;;4993618;28;20046;-69
2022/06/30 06:34:59;;;;;;;5.53;5.00;;;21.70;99.90;;;;;;5009900;28;20037;-69
2022/06/30 06:37:25;;;;;;;6.70;5.57;;;22.10;99.90;;;;;;5009827;28;20045;-68
2022/06/30 06:39:51;;;;;;;6.82;5.72;;;22.00;99.90;;;;;;5012912;28;20468;-69
2022/06/30 06:42:17;;;;;;;7.15;5.28;;;22.10;99.90;;;;;;5013422;28;20041;-70
2022/06/30 06:44:42;;;;;;;6.70;5.55;;;22.30;99.90;;;;;;5014858;28;20034;-70
2022/06/30 06:47:08;;;;;;;6.85;5.93;;;22.40;99.90;;;;;;5013351;28;20045;-70
2022/06/30 06:49:34;;;;;;;6.72;5.78;;;22.30;99.90;;;;;;5013967;28;20099;-70
2022/06/30 06:52:00;;;;;;;8.05;5.65;;;22.60;99.90;;;;;;5014535;28;20407;-70
2022/06/30 06:54:25;;;;;;;8.70;5.97;;;23.00;99.90;;;;;;5014305;28;20042;-70
2022/06/30 06:56:51;;;;;;;7.65;6.10;;;22.50;99.90;;;;;;4996658;28;20408;-70
2022/06/30 06:59:16;;;;;;;7.70;6.57;;;22.70;99.90;;;;;;5013864;28;20080;-69
2022/06/30 07:01:42;;;;;;;8.68;5.90;;;22.90;99.90;;;;;;4995330;28;20044;-70
2022/06/30 07:04:08;;;;;;;9.05;6.45;;;22.90;99.90;;;;;;5014338;28;20029;-69
2022/06/30 07:06:34;;;;;;;8.38;6.13;;;22.90;99.90;;;;;;5012712;28;20552;-70
2022/06/30 07:09:00;;;;;;;7.63;6.53;;;22.90;99.90;;;;;;5013796;28;20061;-68
2022/06/30 07:11:26;;;;;;;9.70;7.35;;;23.20;99.90;;;;;;5012617;28;20088;-70
2022/06/30 07:13:52;;;;;;;9.10;7.22;;;23.20;99.90;;;;;;5012875;28;20069;-69
2022/06/30 07:16:17;;;;;;;7.47;6.68;;;23.60;99.90;;;;;;5012876;28;20464;-69
2022/06/30 07:18:43;;;;;;;7.97;6.80;;;23.20;99.90;;;;;;4996395;28;20500;-70
2022/06/30 07:21:08;;;;;;;9.57;7.60;;;24.10;99.90;;;;;;5013404;28;20037;-70
2022/06/30 07:23:34;;;;;;;9.75;6.93;;;23.50;99.90;;;;;;5012881;28;20396;-69
2022/06/30 07:26:00;;;;;;;8.68;6.72;;;23.60;99.90;;;;;;5014144;28;20151;-69
2022/06/30 07:28:26;;;;;;;12.02;7.22;;;23.50;99.90;;;;;;5012472;28;20045;-70
2022/06/30 07:30:52;;;;;;;9.15;6.63;;;23.60;99.90;;;;;;5013199;28;20050;-70
2022/06/30 07:33:18;;;;;;;9.73;5.95;;;23.90;99.90;;;;;;5012516;28;20389;-70
2022/06/30 07:35:45;;;;;;;11.88;6.85;;;23.80;99.90;;;;;;5013762;28;20037;-70
2022/06/30 07:38:10;;;;;;;7.85;7.00;;;24.00;99.90;;;;;;5012261;28;20122;-69
2022/06/30 07:40:36;;;;;;;7.68;6.70;;;23.80;99.90;;;;;;5011791;28;20128;-70
2022/06/30 07:43:02;;;;;;;9.10;6.95;;;24.20;99.90;;;;;;4995993;28;20200;-71
2022/06/30 07:45:27;;;;;;;10.00;8.43;;;24.30;99.90;;;;;;5012266;28;20038;-70
2022/06/30 07:47:53;;;;;;;10.63;7.30;;;24.60;99.90;;;;;;5012095;28;20045;-69
2022/06/30 07:50:20;;;;;;;9.38;7.35;;;24.30;99.90;;;;;;5010618;28;20482;-69
2022/06/30 07:52:46;;;;;;;10.48;7.60;;;24.40;99.90;;;;;;5012365;28;20112;-70
2022/06/30 07:55:12;;;;;;;8.02;7.18;;;24.80;99.90;;;;;;5013304;28;20526;-69
2022/06/30 07:57:42;;;;;;;9.35;6.70;;;25.20;99.90;;;;;;4995528;28;20069;-69
2022/06/30 08:00:10;;;;;;;10.48;7.47;;;24.60;99.90;;;;;;5009925;28;20120;-70
2022/06/30 08:02:35;;;;;;;11.52;7.43;;;24.70;99.90;;;;;;5012928;28;20038;-70
2022/06/30 08:05:01;;;;;;;9.55;7.45;;;24.80;99.90;;;;;;5013322;28;20030;-70
2022/06/30 08:07:27;;;;;;;7.78;7.00;;;24.80;99.90;;;;;;5011657;28;20044;-70
2022/06/30 08:09:53;;;;;;;8.15;7.32;;;25.00;99.90;;;;;;5012459;28;20187;-70
2022/06/30 08:12:18;;;;;;;10.38;7.47;;;25.10;99.90;;;;;;5011683;28;20050;-70
2022/06/30 08:14:44;;;;;;;9.35;7.45;;;25.00;99.90;;;;;;5011626;28;20033;-70
2022/06/30 08:17:10;;;;;;;10.30;8.05;;;25.70;99.90;;;;;;5011538;28;20076;-70
2022/06/30 08:19:35;;;;;;;13.93;8.82;;;25.70;99.90;;;;;;5011054;28;20046;-71
2022/06/30 08:22:01;;;;;;;16.00;7.78;;;25.30;99.90;;;;;;5011840;28;20108;-70
2022/06/30 08:24:27;;;;;;;13.18;8.07;;;25.40;99.90;;;;;;5011527;28;20073;-70
2022/06/30 08:26:53;;;;;;;9.50;7.88;;;25.20;99.90;;;;;;5012787;28;20057;-70
2022/06/30 08:29:18;;;;;;;8.20;7.40;;;25.40;99.90;;;;;;5010622;28;20046;-70
2022/06/30 08:31:44;;;;;;;10.70;9.07;;;25.20;99.90;;;;;;5011402;28;20045;-70
2022/06/30 08:34:10;;;;;;;11.95;8.18;;;25.40;99.90;;;;;;5011383;28;20392;-70
2022/06/30 08:36:35;;;;;;;13.70;8.88;;;26.40;99.90;;;;;;5011152;28;20057;-70
2022/06/30 08:39:01;;;;;;;13.02;8.35;;;25.40;99.90;;;;;;5011047;28;20128;-70
2022/06/30 08:44:33;;;;;;;9.85;8.85;;;26.20;99.90;;;;;;5000571;28;20046;-70
2022/06/30 08:46:58;;;;;;;10.77;8.88;;;26.50;99.90;;;;;;4995205;28;20038;-71
2022/06/30 08:49:24;;;;;;;10.02;8.77;;;25.80;99.90;;;;;;5010545;28;20546;-70
2022/06/30 08:51:51;;;;;;;11.65;8.27;;;25.80;99.90;;;;;;4994942;28;20400;-70
2022/06/30 08:54:19;;;;;;;11.25;8.30;;;26.50;99.90;;;;;;5011338;28;20082;-70
2022/06/30 08:56:46;;;;;;;10.63;8.50;;;26.10;99.90;;;;;;5011156;28;20042;-70
2022/06/30 08:59:12;;;;;;;9.63;8.45;;;26.60;99.90;;;;;;5011636;28;20048;-71
2022/06/30 09:01:37;;;;;;;10.70;8.80;;;26.10;99.90;;;;;;5008931;28;20033;-70
2022/06/30 09:04:06;;;;;;;10.27;8.15;;;26.90;99.90;;;;;;5010701;28;20037;-70
2022/06/30 09:06:31;;;;;;;13.25;9.25;;;26.30;99.90;;;;;;5011890;28;20515;-70
2022/06/30 09:08:57;;;;;;;11.93;8.50;;;27.10;99.90;;;;;;5010457;28;20053;-70
2022/06/30 09:11:51;;;;;;;13.63;8.32;;;26.50;99.90;;;;;;5011857;28;20046;-71
2022/06/30 09:14:37;;;;;;;8.98;8.07;;;26.20;99.90;;;;;;5010983;28;20049;-71
2022/06/30 09:17:05;;;;;;;8.43;6.97;;;26.60;99.90;;;;;;5010795;28;20043;-72
2022/06/30 09:19:31;;;;;;;8.40;7.10;;;26.50;99.90;;;;;;5009949;28;20084;-71
2022/06/30 09:22:05;;;;;;;11.32;8.80;;;26.60;99.90;;;;;;5011898;28;20073;-70
2022/06/30 09:24:31;;;;;;;10.73;8.23;;;26.80;99.90;;;;;;5010573;28;20034;-70
2022/06/30 09:27:16;;;;;;;13.02;8.50;;;26.90;99.90;;;;;;4994481;28;20045;-70
2022/06/30 09:29:50;;;;;;;10.25;7.70;;;27.10;99.90;;;;;;5009955;28;20121;-70
2022/06/30 09:32:16;;;;;;;10.52;8.45;;;26.90;99.90;;;;;;5012038;28;20393;-70
2022/06/30 09:34:43;;;;;;;10.02;8.80;;;26.80;99.90;;;;;;5010535;28;20128;-70
2022/06/30 09:37:23;;;;;;;10.98;7.80;;;26.80;99.90;;;;;;5010347;28;20037;-70
2022/06/30 09:39:50;;;;;;;12.25;9.40;;;26.70;99.90;;;;;;5009539;28;20052;-70
2022/06/30 09:42:45;;;;;;;9.00;7.68;;;27.80;99.90;;;;;;5012003;28;20565;-70
2022/06/30 09:45:12;;;;;;;8.52;7.72;;;27.30;99.90;;;;;;5011785;28;20081;-70
2022/06/30 09:47:52;;;;;;;11.02;7.82;;;28.00;99.90;;;;;;5010272;28;20037;-70
2022/06/30 09:50:18;;;;;;;12.00;8.18;;;27.70;99.90;;;;;;5009563;28;20120;-70
2022/06/30 09:52:43;;;;;;;8.40;7.50;;;27.40;99.90;;;;;;5010223;28;20128;-70
2022/06/30 09:55:09;;;;;;;9.50;8.50;;;27.40;99.90;;;;;;5010331;28;20578;-70
2022/06/30 09:57:42;;;;;;;11.05;8.60;;;27.90;99.90;;;;;;4993708;28;20042;-71
2022/06/30 10:00:19;;;;;;;10.82;8.20;;;27.60;99.90;;;;;;5008883;28;20479;-69
2022/06/30 10:02:49;;;;;;;11.45;10.23;;;27.50;99.90;;;;;;5010178;28;20046;-70
2022/06/30 10:05:17;;;;;;;12.00;8.90;;;27.50;99.90;;;;;;5011691;28;20034;-70
2022/06/30 10:07:44;;;;;;;11.02;9.93;;;28.00;99.90;;;;;;5010172;28;20049;-70
2022/06/30 10:10:12;;;;;;;19.70;11.20;;;28.90;99.90;;;;;;5009562;28;20526;-70
2022/06/30 10:12:40;;;;;;;12.52;9.05;;;27.30;99.60;;;;;;5010340;28;20364;-71
2022/06/30 10:15:07;;;;;;;9.50;8.45;;;27.50;99.80;;;;;;5014525;28;20500;-70
2022/06/30 10:17:36;;;;;;;14.13;9.68;;;27.50;99.90;;;;;;5013799;28;20495;-71
2022/06/30 10:20:04;;;;;;;18.00;11.80;;;27.70;99.80;;;;;;5013190;28;20219;-70
2022/06/30 10:22:30;;;;;;;16.70;12.57;;;27.40;99.80;;;;;;5014038;28;20128;-70
2022/06/30 10:24:57;;;;;;;20.10;14.32;;;27.40;99.90;;;;;;5013878;28;20088;-71
2022/06/30 10:27:25;;;;;;;17.58;14.82;;;27.30;99.90;;;;;;4997758;28;20100;-70
2022/06/30 10:30:09;;;;;;;20.00;16.60;;;27.30;99.90;;;;;;5013103;28;20423;-71
2022/06/30 10:32:50;;;;;;;21.92;15.70;;;26.90;99.90;;;;;;5013933;28;20042;-70
2022/06/30 10:35:44;;;;;;;16.92;13.63;;;26.90;99.80;;;;;;4997652;28;20053;-70
2022/06/30 10:38:33;;;;;;;17.83;14.70;;;27.20;99.90;;;;;;5014004;28;20121;-71
2022/06/30 10:41:17;;;;;;;17.83;12.35;;;27.40;99.30;;;;;;5014376;28;20037;-71
2022/06/30 10:44:04;;;;;;;13.57;11.90;;;27.50;99.80;;;;;;5014106;28;20113;-70
2022/06/30 10:46:32;;;;;;;15.75;12.85;;;27.60;99.10;;;;;;5013659;28;20041;-71
2022/06/30 10:48:58;;;;;;;15.00;13.45;;;27.30;99.20;;;;;;4996898;28;20038;-71
2022/06/30 10:51:25;;;;;;;11.48;10.32;;;27.10;99.30;;;;;;5013156;28;20096;-71
2022/06/30 10:53:55;;;;;;;11.85;10.57;;;27.40;99.20;;;;;;5013334;28;20080;-71
2022/06/30 10:56:23;;;;;;;14.43;12.50;;;27.40;99.30;;;;;;4996747;28;20492;-71
2022/06/30 10:59:13;;;;;;;12.48;10.65;;;27.30;99.00;;;;;;5013461;28;20077;-71
2022/06/30 11:02:15;;;;;;;11.15;7.78;;;27.30;97.90;;;;;;5011623;28;20061;-71
2022/06/30 11:04:47;;;;;;;13.65;11.18;;;27.30;97.50;;;;;;5013077;28;20097;-71
2022/06/30 11:07:17;;;;;;;15.70;12.25;;;27.50;99.10;;;;;;5012914;28;20077;-71
2022/06/30 11:09:49;;;;;;;14.88;12.98;;;27.60;99.30;;;;;;5012097;28;20084;-72
2022/06/30 11:12:23;;;;;;;15.73;14.05;;;27.50;99.10;;;;;;5014196;28;20042;-72
2022/06/30 11:14:54;;;;;;;18.08;13.68;;;27.50;99.80;;;;;;5014132;28;20038;-71
2022/06/30 11:17:23;;;;;;;16.35;12.77;;;27.40;99.10;;;;;;5012644;28;20073;-71
2022/06/30 11:19:59;;;;;;;17.40;13.52;;;28.30;99.60;;;;;;5011965;28;20100;-71
2022/06/30 11:22:26;;;;;;;16.95;11.13;;;27.70;99.30;;;;;;5013061;28;20435;-71
2022/06/30 11:24:54;;;;;;;13.43;10.88;;;27.40;99.20;;;;;;4995773;28;20092;-71
2022/06/30 11:27:24;;;;;;;11.80;9.85;;;27.30;99.30;;;;;;5012577;28;20350;-71
2022/06/30 11:30:04;;;;;;;11.25;10.05;;;27.70;98.80;;;;;;5011910;28;20180;-71
2022/06/30 11:32:31;;;;;;;12.70;7.97;;;27.80;98.60;;;;;;4996482;28;20092;-72
2022/06/30 11:34:57;;;;;;;11.15;8.77;;;28.00;99.20;;;;;;5013756;28;20117;-71
2022/06/30 11:37:24;;;;;;;11.55;9.18;;;28.20;98.90;;;;;;5012387;28;20568;-71
2022/06/30 11:39:57;;;;;;;13.27;9.50;;;28.00;98.70;;;;;;5012841;28;20042;-71
2022/06/30 11:42:23;;;;;;;11.73;8.40;;;28.00;99.10;;;;;;5012552;28;20116;-70
2022/06/30 11:44:49;;;;;;;14.55;9.18;;;28.10;99.20;;;;;;5013708;28;20406;-69
2022/06/30 11:47:16;;;;;;;10.70;9.48;;;27.50;98.20;;;;;;5012399;28;20049;-69
2022/06/30 11:49:55;;;;;;;13.48;8.15;;;27.70;99.00;;;;;;5012718;28;20074;-69
2022/06/30 11:52:27;;;;;;;14.23;8.60;;;27.50;99.00;;;;;;4995758;28;20125;-69
2022/06/30 11:54:58;;;;;;;12.55;8.25;;;27.50;98.40;;;;;;5012431;28;20124;-69
2022/06/30 11:57:27;;;;;;;9.23;7.72;;;27.30;98.50;;;;;;5011969;28;20045;-69
2022/06/30 11:59:56;;;;;;;9.20;6.60;;;27.80;99.20;;;;;;5011483;28;20377;-69
2022/06/30 12:02:21;;;;;;;11.70;7.55;;;27.30;99.10;;;;;;5011472;28;20037;-69
2022/06/30 12:04:54;;;;;;;14.65;6.97;;;27.10;98.80;;;;;;4995520;28;20038;-69
2022/06/30 12:07:21;;;;;;;11.73;6.57;;;27.50;99.30;;;;;;5041844;23;21837;-72
2022/06/30 12:09:50;;;;;;;9.15;6.88;;;27.50;98.70;;;;;;5035079;28;20132;-73
2022/06/30 12:12:27;;;;;;;9.43;6.75;;;27.50;99.00;;;;;;5052136;28;20053;-73
2022/06/30 12:14:59;;;;;;;11.07;5.90;;;27.30;99.00;;;;;;5035366;28;20037;-72
2022/06/30 12:17:33;;;;;;;6.45;4.68;;;28.10;99.10;;;;;;5019769;28;20246;-72
2022/06/30 12:20:00;;;;;;;10.93;5.47;;;27.30;98.50;;;;;;5050980;28;20126;-72
2022/06/30 12:22:25;;;;;;;8.68;6.55;;;27.50;98.90;;;;;;5053037;28;20040;-73
2022/06/30 12:24:52;;;;;;;9.27;6.25;;;27.50;98.80;;;;;;5051947;28;20037;-74
2022/06/30 12:27:29;;;;;;;12.13;5.70;;;27.60;99.20;;;;;;5051599;28;20067;-74
2022/06/30 12:30:20;;;;;;;8.77;6.57;;;27.50;99.20;;;;;;5051990;28;20045;-71
2022/06/30 12:32:54;;;;;;;10.73;6.30;;;26.80;98.60;;;;;;5047228;28;20052;-72
2022/06/30 12:35:22;;;;;;;13.57;6.57;;;27.20;99.50;;;;;;5035028;28;20067;-71
2022/06/30 12:37:48;;;;;;;8.60;5.75;;;27.50;99.30;;;;;;5051184;28;20498;-71
2022/06/30 12:40:16;;;;;;;9.90;6.07;;;27.30;99.30;;;;;;5034103;28;20061;-71
2022/06/30 12:42:50;;;;;;;11.38;6.45;;;27.30;99.40;;;;;;5051607;28;20120;-71
2022/06/30 12:45:36;;;;;;;9.38;6.47;;;27.40;98.40;;;;;;5051444;28;20041;-71
2022/06/30 12:48:04;;;;;;;10.68;6.85;;;27.00;98.80;;;;;;5051305;28;20076;-73
2022/06/30 12:50:34;;;;;;;10.82;5.97;;;27.00;98.90;;;;;;5051890;28;20474;-71
2022/06/30 12:53:23;;;;;;;9.45;4.72;;;26.90;98.90;;;;;;5051068;28;20053;-71
2022/06/30 12:56:21;;;;;;;8.32;4.13;;;26.80;98.30;;;;;;5034578;28;20049;-71
2022/06/30 12:58:59;;;;;;;11.73;4.55;;;27.10;98.80;;;;;;5050776;28;20052;-72